createdAt,value
2019-02-19T00:01:49.337Z,100901.97
2019-02-19T00:04:17.639Z,100907.17
2019-02-19T00:06:47.257Z,100898.63
2019-02-19T00:09:15.539Z,100897.45
2019-02-19T00:11:43.788Z,100898.53
2019-02-19T00:14:12.073Z,100887.02
2019-02-19T00:16:40.342Z,100886.39
2019-02-19T00:19:09.241Z,100888.69
2019-02-19T00:21:37.542Z,100774.96
2019-02-19T00:24:05.799Z,100898.73
2019-02-19T00:26:34.100Z,100893.08
2019-02-19T00:29:02.367Z,100883.94
2019-02-19T00:31:30.640Z,100885.17
2019-02-19T00:33:58.901Z,100876.15
2019-02-19T00:36:27.183Z,100867.92
2019-02-19T00:38:55.448Z,100878.98
2019-02-19T00:41:23.788Z,100877.83
2019-02-19T00:43:52.044Z,100875.73
2019-02-19T00:46:20.339Z,100872.95
2019-02-19T00:48:48.732Z,100869.61
2019-02-19T00:51:17.024Z,100860.79
2019-02-19T00:53:45.289Z,100853.89
2019-02-19T00:56:13.624Z,100855.59
2019-02-19T00:58:41.875Z,100854.96
2019-02-19T01:01:10.172Z,100856.77
2019-02-19T01:03:38.446Z,100856.30
2019-02-19T01:06:09.158Z,100854.96
2019-02-19T01:08:37.418Z,100857.44
2019-02-19T01:11:05.763Z,100852.47
2019-02-19T01:13:34.043Z,100856.35
2019-02-19T01:16:02.313Z,100848.02
2019-02-19T01:18:30.608Z,100850.97
2019-02-19T01:20:58.878Z,100851.89
2019-02-19T01:23:27.165Z,100851.81
2019-02-19T01:25:55.416Z,100848.84
2019-02-19T01:28:23.714Z,100852.13
2019-02-19T01:30:53.878Z,100849.62
2019-02-19T01:33:22.130Z,100853.97
2019-02-19T01:35:50.394Z,100852.13
2019-02-19T01:38:18.708Z,100830.97
2019-02-19T01:40:46.981Z,100844.72
2019-02-19T01:43:16.900Z,100838.17
2019-02-19T01:45:45.162Z,100834.67
2019-02-19T01:48:13.448Z,100834.38
2019-02-19T01:50:43.387Z,100833.05
2019-02-19T01:53:11.647Z,100827.10
2019-02-19T01:55:39.924Z,100832.88
2019-02-19T01:58:08.186Z,100829.02
2019-02-19T02:00:36.484Z,100821.53
2019-02-19T02:03:04.793Z,100821.80
2019-02-19T02:05:33.079Z,100819.70
2019-02-19T02:08:01.341Z,100817.87
2019-02-19T02:10:29.642Z,100816.06
2019-02-19T02:12:57.920Z,100808.47
2019-02-19T02:15:26.217Z,100805.97
2019-02-19T02:17:54.503Z,100801.23
2019-02-19T02:20:22.834Z,100805.81
2019-02-19T02:22:51.095Z,100808.17
2019-02-19T02:25:19.443Z,100806.73
2019-02-19T02:27:47.719Z,100802.53
2019-02-19T02:30:16.163Z,100806.53
2019-02-19T02:32:44.448Z,100803.36
2019-02-19T02:35:12.797Z,100805.52
2019-02-19T02:37:41.037Z,100799.84
2019-02-19T02:40:09.361Z,100800.36
2019-02-19T02:42:37.641Z,100799.77
2019-02-19T02:45:05.965Z,100801.77
2019-02-19T02:48:11.006Z,100802.80
2019-02-19T02:50:39.271Z,100790.70
2019-02-19T02:53:07.564Z,100803.66
2019-02-19T02:55:35.831Z,100808.19
2019-02-19T02:58:04.108Z,100806.28
2019-02-19T03:00:32.385Z,100813.43
2019-02-19T03:03:00.683Z,100817.26
2019-02-19T03:05:28.939Z,100814.37
2019-02-19T03:07:58.863Z,100814.88
2019-02-19T03:10:27.123Z,100808.50
2019-02-19T03:12:55.610Z,100810.12
2019-02-19T03:15:23.870Z,100811.47
2019-02-19T03:17:52.160Z,100816.51
2019-02-19T03:20:20.462Z,100813.98
2019-02-19T03:22:48.741Z,100815.58
2019-02-19T03:25:17.031Z,100825.19
2019-02-19T03:27:45.305Z,100823.30
2019-02-19T03:30:13.680Z,100818.33
2019-02-19T03:32:41.957Z,100810.91
2019-02-19T03:35:10.232Z,100808.77
2019-02-19T03:37:38.512Z,100803.63
2019-02-19T03:40:07.923Z,100808.03
2019-02-19T03:42:36.219Z,100797.70
2019-02-19T03:45:06.361Z,100801.24
2019-02-19T03:47:34.697Z,100803.98
2019-02-19T03:50:03.183Z,100804.52
2019-02-19T03:52:31.484Z,100802.93
2019-02-19T03:54:59.784Z,100806.91
2019-02-19T03:57:28.057Z,100814.17
2019-02-19T03:59:56.344Z,100812.33
2019-02-19T04:02:24.612Z,100806.05
2019-02-19T04:04:52.888Z,100817.03
2019-02-19T04:07:21.165Z,100818.88
2019-02-19T04:09:49.442Z,100817.36
2019-02-19T04:12:19.329Z,100817.61
2019-02-19T04:14:47.607Z,100821.80
2019-02-19T04:17:15.889Z,100828.17
2019-02-19T04:19:44.151Z,100829.38
2019-02-19T04:22:12.434Z,100818.30
2019-02-19T04:24:40.844Z,100820.03
2019-02-19T04:27:09.114Z,100825.10
2019-02-19T04:29:37.358Z,100821.31
2019-02-19T04:32:05.634Z,100820.85
2019-02-19T04:34:33.884Z,100825.03
2019-02-19T04:37:02.154Z,100830.31
2019-02-19T04:39:30.408Z,100829.22
2019-02-19T04:41:58.699Z,100830.09
2019-02-19T04:44:26.966Z,100829.14
2019-02-19T04:46:55.246Z,100825.81
2019-02-19T04:49:28.047Z,100833.30
2019-02-19T04:51:56.327Z,100829.88
2019-02-19T04:54:24.597Z,100832.58
2019-02-19T04:56:52.858Z,100822.69
2019-02-19T04:59:21.135Z,100833.00
2019-02-19T05:01:49.415Z,100839.41
2019-02-19T05:04:17.671Z,100838.70
2019-02-19T05:06:45.946Z,100838.59
2019-02-19T05:09:14.224Z,100838.20
2019-02-19T05:11:42.486Z,100839.19
2019-02-19T05:14:10.835Z,100844.72
2019-02-19T05:16:41.003Z,100835.42
2019-02-19T05:19:09.177Z,100844.12
2019-02-19T05:21:37.435Z,100842.38
2019-02-19T05:24:05.721Z,100849.12
2019-02-19T05:26:33.967Z,100844.72
2019-02-19T05:29:02.237Z,100844.72
2019-02-19T05:31:30.508Z,100844.83
2019-02-19T05:33:58.796Z,100849.72
2019-02-19T05:36:27.059Z,100850.75
2019-02-19T05:38:55.316Z,100848.16
2019-02-19T05:41:23.621Z,100847.80
2019-02-19T05:43:51.915Z,100851.38
2019-02-19T05:46:23.170Z,100852.70
2019-02-19T05:48:51.425Z,100861.61
2019-02-19T05:51:19.681Z,100861.61
2019-02-19T05:53:47.955Z,100862.95
2019-02-19T05:56:16.227Z,100861.71
2019-02-19T05:58:44.495Z,100857.00
2019-02-19T06:01:12.735Z,100856.71
2019-02-19T06:03:41.011Z,100858.59
2019-02-19T06:06:10.907Z,100856.02
2019-02-19T06:08:39.205Z,100854.41
2019-02-19T06:11:07.464Z,100858.67
2019-02-19T06:13:35.743Z,100858.92
2019-02-19T06:16:04.005Z,100866.72
2019-02-19T06:18:32.290Z,100872.22
2019-02-19T06:21:00.537Z,100872.92
2019-02-19T06:23:28.831Z,100875.16
2019-02-19T06:25:57.082Z,100874.87
2019-02-19T06:28:25.335Z,100879.37
2019-02-19T06:30:53.604Z,100882.66
2019-02-19T06:33:21.866Z,100880.36
2019-02-19T06:35:50.158Z,100876.86
2019-02-19T06:38:18.429Z,100887.70
2019-02-19T06:40:46.705Z,100894.83
2019-02-19T06:43:14.958Z,100894.67
2019-02-19T06:45:45.586Z,100889.24
2019-02-19T06:48:13.850Z,100892.58
2019-02-19T06:50:42.125Z,100895.98
2019-02-19T06:53:10.391Z,100895.23
2019-02-19T06:55:38.646Z,100892.62
2019-02-19T06:58:06.909Z,100904.86
2019-02-19T07:00:35.193Z,100915.19
2019-02-19T07:03:07.765Z,100913.34
2019-02-19T07:05:36.055Z,100918.23
2019-02-19T07:08:05.932Z,100915.04
2019-02-19T07:10:34.200Z,100920.81
2019-02-19T07:13:02.450Z,100923.77
2019-02-19T07:15:30.710Z,100921.71
2019-02-19T07:17:58.991Z,100924.30
2019-02-19T07:20:27.239Z,100932.38
2019-02-19T07:22:55.506Z,100936.14
2019-02-19T07:25:23.847Z,100927.80
2019-02-19T07:27:52.148Z,100937.28
2019-02-19T07:30:20.463Z,100931.58
2019-02-19T07:32:48.733Z,100928.64
2019-02-19T07:35:17.032Z,100931.13
2019-02-19T07:37:45.974Z,100935.91
2019-02-19T07:40:14.310Z,100939.75
2019-02-19T07:42:42.591Z,100937.45
2019-02-19T07:45:12.538Z,100944.33
2019-02-19T07:47:40.808Z,100941.64
2019-02-19T07:50:10.687Z,100945.75
2019-02-19T07:52:38.967Z,100941.85
2019-02-19T07:55:09.630Z,100948.59
2019-02-19T07:57:37.912Z,100946.64
2019-02-19T08:00:11.555Z,100947.53
2019-02-19T08:02:39.802Z,100943.17
2019-02-19T08:05:08.691Z,100947.46
2019-02-19T08:07:36.951Z,100947.70
2019-02-19T08:10:08.174Z,100948.31
2019-02-19T08:12:36.439Z,100949.59
2019-02-19T08:15:09.306Z,100954.23
2019-02-19T08:17:37.817Z,100953.52
2019-02-19T08:20:15.481Z,100951.83
2019-02-19T08:22:38.605Z,100955.11
2019-02-19T08:25:08.578Z,100958.48
2019-02-19T08:27:36.826Z,100957.77
2019-02-19T08:30:07.396Z,100957.17
2019-02-19T08:32:35.678Z,100956.45
2019-02-19T08:35:04.246Z,100962.20
2019-02-19T08:37:32.607Z,100951.56
2019-02-19T08:40:00.829Z,100954.64
2019-02-19T08:42:29.075Z,100947.16
2019-02-19T08:44:57.455Z,100958.60
2019-02-19T08:47:25.721Z,100956.17
2019-02-19T08:49:54.008Z,100960.66
2019-02-19T08:52:22.267Z,100965.20
2019-02-19T08:54:50.623Z,100963.77
2019-02-19T08:57:18.925Z,100975.78
2019-02-19T08:59:47.187Z,100966.08
2019-02-19T09:02:15.445Z,100969.18
2019-02-19T09:04:43.715Z,100967.96
2019-02-19T09:07:12.390Z,100973.12
2019-02-19T09:09:40.957Z,100982.81
2019-02-19T09:12:09.240Z,100983.69
2019-02-19T09:14:37.511Z,100985.66
2019-02-19T09:17:05.859Z,100989.00
2019-02-19T09:19:34.133Z,100979.45
2019-02-19T09:22:02.401Z,100984.09
2019-02-19T09:24:33.539Z,100988.01
2019-02-19T09:27:02.178Z,100985.80
2019-02-19T09:29:30.452Z,100979.66
2019-02-19T09:31:58.784Z,100983.48
2019-02-19T09:34:27.051Z,100987.05
2019-02-19T09:36:55.442Z,100987.78
2019-02-19T09:39:23.732Z,100994.30
2019-02-19T09:41:52.019Z,100997.75
2019-02-19T09:44:23.353Z,100997.97
2019-02-19T09:46:51.638Z,100990.98
2019-02-19T09:49:19.889Z,100995.63
2019-02-19T09:51:48.161Z,100987.53
2019-02-19T09:54:16.445Z,100980.39
2019-02-19T09:56:44.702Z,100985.45
2019-02-19T09:59:14.626Z,100984.85
2019-02-19T10:01:42.902Z,100983.02
2019-02-19T10:04:11.183Z,100975.74
2019-02-19T10:06:39.450Z,100990.61
2019-02-19T10:09:09.571Z,100990.73
2019-02-19T10:11:37.848Z,100979.70
2019-02-19T10:14:06.112Z,100972.46
2019-02-19T10:16:41.451Z,100980.80
2019-02-19T10:19:04.423Z,100982.77
2019-02-19T10:21:32.676Z,100983.27
2019-02-19T10:24:00.972Z,100985.35
2019-02-19T10:26:29.246Z,100993.20
2019-02-19T10:28:57.535Z,100978.09
2019-02-19T10:31:26.615Z,100987.45
2019-02-19T10:33:54.897Z,100978.72
2019-02-19T10:36:23.144Z,100971.22
2019-02-19T10:38:51.416Z,100964.23
2019-02-19T10:41:19.670Z,100967.05
2019-02-19T10:43:47.956Z,100967.88
2019-02-19T10:46:16.203Z,100966.52
2019-02-19T10:48:44.513Z,100964.16
2019-02-19T10:51:12.755Z,100967.22
2019-02-19T10:53:41.046Z,100978.06
2019-02-19T10:56:09.339Z,100972.59
2019-02-19T10:58:37.614Z,100964.34
2019-02-19T11:01:05.869Z,100970.72
2019-02-19T11:03:34.149Z,100952.25
2019-02-19T11:06:02.416Z,100953.44
2019-02-19T11:08:30.669Z,100942.99
2019-02-19T11:10:58.939Z,100946.67
2019-02-19T11:13:27.192Z,100940.06
2019-02-19T11:15:55.508Z,100939.04
2019-02-19T11:18:28.358Z,100948.41
2019-02-19T11:20:53.765Z,100955.27
2019-02-19T11:23:22.025Z,100948.81
2019-02-19T11:25:50.443Z,100948.55
2019-02-19T11:28:18.698Z,100949.92
2019-02-19T11:30:47.009Z,100950.60
2019-02-19T11:33:15.256Z,100948.69
2019-02-19T11:35:43.600Z,100954.80
2019-02-19T11:38:11.859Z,100961.33
2019-02-19T11:40:40.144Z,100966.94
2019-02-19T11:43:08.401Z,100961.86
2019-02-19T11:45:36.745Z,100960.77
2019-02-19T11:48:04.993Z,100963.03
2019-02-19T11:50:33.312Z,100962.68
2019-02-19T11:53:01.586Z,100973.54
2019-02-19T11:55:29.863Z,100967.09
2019-02-19T11:57:58.150Z,100954.97
2019-02-19T12:00:40.111Z,100963.56
2019-02-19T12:03:08.465Z,100962.08
2019-02-19T12:05:36.824Z,100971.20
2019-02-19T12:08:05.255Z,100963.13
2019-02-19T12:10:33.664Z,100964.91
2019-02-19T12:13:01.956Z,100962.58
2019-02-19T12:15:35.090Z,100967.22
2019-02-19T12:18:00.223Z,100962.41
2019-02-19T12:20:28.464Z,100963.66
2019-02-19T12:22:57.672Z,100963.94
2019-02-19T12:25:25.925Z,100969.49
2019-02-19T12:27:54.242Z,100969.01
2019-02-19T12:30:22.530Z,100961.27
2019-02-19T12:32:50.855Z,100962.54
2019-02-19T12:35:19.167Z,100956.27
2019-02-19T12:37:47.447Z,100960.82
2019-02-19T12:40:15.737Z,100965.88
2019-02-19T12:42:44.088Z,100970.16
2019-02-19T12:45:15.644Z,100964.52
2019-02-19T12:47:43.894Z,100962.43
2019-02-19T12:50:16.867Z,100962.91
2019-02-19T12:52:45.203Z,100966.12
2019-02-19T12:55:13.596Z,100972.03
2019-02-19T12:57:41.871Z,100962.44
2019-02-19T13:00:21.029Z,100969.83
2019-02-19T13:02:49.286Z,100973.63
2019-02-19T13:05:17.810Z,100974.36
2019-02-19T13:07:47.077Z,100975.59
2019-02-19T13:10:15.558Z,100964.05
2019-02-19T13:12:45.484Z,100974.87
2019-02-19T13:15:17.065Z,100971.19
2019-02-19T13:17:45.394Z,100973.02
2019-02-19T13:20:15.333Z,100969.23
2019-02-19T13:22:43.599Z,100980.03
2019-02-19T13:25:12.262Z,100970.94
2019-02-19T13:27:40.535Z,100959.50
2019-02-19T13:30:12.123Z,100972.80
2019-02-19T13:32:40.459Z,100972.69
2019-02-19T13:35:10.942Z,100973.07
2019-02-19T13:37:39.195Z,100980.18
2019-02-19T13:40:11.549Z,100986.71
2019-02-19T13:42:39.771Z,100988.56
2019-02-19T13:45:10.734Z,100986.59
2019-02-19T13:47:38.990Z,100985.47
2019-02-19T13:50:32.513Z,100987.82
2019-02-19T13:53:05.312Z,100980.45
2019-02-19T13:55:35.269Z,100986.20
2019-02-19T13:58:03.518Z,100992.72
2019-02-19T14:00:33.475Z,101001.05
2019-02-19T14:03:01.740Z,100998.36
2019-02-19T14:05:30.014Z,101000.30
2019-02-19T14:07:58.315Z,101004.61
2019-02-19T14:10:28.074Z,101004.47
2019-02-19T14:12:56.361Z,100997.59
2019-02-19T14:15:42.495Z,100989.72
2019-02-19T14:18:12.394Z,100995.86
2019-02-19T14:20:51.501Z,101003.61
2019-02-19T14:26:22.390Z,101003.13
2019-02-19T14:28:57.982Z,101010.37
2019-02-19T14:31:27.929Z,101013.67
2019-02-19T14:34:13.226Z,101007.41
2019-02-19T14:36:58.030Z,101007.66
2019-02-19T14:39:39.771Z,101005.09
2019-02-19T14:42:12.715Z,101010.10
2019-02-19T14:44:45.401Z,101003.46
2019-02-19T14:47:30.361Z,101007.14
2019-02-19T14:50:02.864Z,101009.45
2019-02-19T14:55:34.346Z,101022.56
2019-02-19T14:58:21.076Z,101023.05
2019-02-19T15:00:59.609Z,101028.63
2019-02-19T15:03:32.364Z,101024.81
2019-02-19T15:06:02.265Z,101022.36
2019-02-19T15:11:13.795Z,101022.49
2019-02-19T15:13:43.724Z,101023.23
2019-02-19T15:16:29.786Z,101016.49
2019-02-19T15:18:59.712Z,101018.94
2019-02-19T15:21:45.674Z,101033.18
2019-02-19T15:24:15.622Z,101028.00
2019-02-19T15:27:00.659Z,101020.84
2019-02-19T15:29:36.321Z,101023.02
2019-02-19T15:32:09.093Z,101018.02
2019-02-19T15:34:39.039Z,101036.65
2019-02-19T15:37:18.119Z,101035.16
2019-02-19T15:39:51.160Z,101030.02
2019-02-19T15:42:23.972Z,101033.67
2019-02-19T15:44:53.878Z,101022.64
2019-02-19T15:47:23.810Z,101029.42
2019-02-19T15:50:05.879Z,101046.17
2019-02-19T15:52:51.045Z,101022.00
2019-02-19T15:55:38.226Z,101029.20
2019-02-19T15:58:07.897Z,101034.00
2019-02-19T16:00:46.838Z,101046.52
2019-02-19T16:03:19.791Z,101041.13
2019-02-19T16:05:54.285Z,101032.40
2019-02-19T16:08:30.177Z,101032.61
2019-02-19T16:11:06.055Z,101043.78
2019-02-19T16:13:46.135Z,101041.23
2019-02-19T16:19:43.907Z,101047.69
2019-02-19T16:22:22.817Z,101051.59
2019-02-19T16:24:55.442Z,101059.42
2019-02-19T16:27:25.374Z,101059.58
2019-02-19T16:29:55.490Z,101065.67
2019-02-19T16:32:28.171Z,101069.61
2019-02-19T16:34:58.228Z,101071.22
2019-02-19T16:37:37.243Z,101075.26
2019-02-19T16:40:17.182Z,101077.00
2019-02-19T16:42:52.723Z,101081.69
2019-02-19T16:45:28.706Z,101076.55
2019-02-19T16:48:01.397Z,101075.59
2019-02-19T16:50:34.285Z,101076.83
2019-02-19T16:53:20.253Z,101082.09
2019-02-19T16:55:53.381Z,101077.44
2019-02-19T16:58:23.291Z,101078.33
2019-02-19T17:00:56.217Z,101088.58
2019-02-19T17:03:38.342Z,101084.93
2019-02-19T17:06:10.971Z,101090.97
2019-02-19T17:08:40.875Z,101099.45
2019-02-19T17:11:31.603Z,101092.95
2019-02-19T17:14:10.541Z,101098.31
2019-02-19T17:16:43.058Z,101107.60
2019-02-19T17:19:18.653Z,101118.73
2019-02-19T17:21:54.202Z,101113.41
2019-02-19T17:24:26.532Z,101106.41
2019-02-19T17:26:59.144Z,101118.20
2019-02-19T17:29:45.304Z,101116.95
2019-02-19T17:32:25.222Z,101119.55
2019-02-19T17:34:55.141Z,101122.24
2019-02-19T17:37:33.881Z,101122.78
2019-02-19T17:40:09.354Z,101123.09
2019-02-19T17:42:42.215Z,101125.79
2019-02-19T17:45:16.559Z,101134.03
2019-02-19T17:47:55.240Z,101129.13
2019-02-19T17:50:25.154Z,101132.58
2019-02-19T17:53:00.570Z,101131.83
2019-02-19T17:55:32.114Z,101138.08
2019-02-19T17:58:09.652Z,101131.68
2019-02-19T18:00:55.950Z,101131.83
2019-02-19T18:03:38.203Z,101135.02
2019-02-19T18:06:08.112Z,101139.72
2019-02-19T18:08:40.858Z,101142.13
2019-02-19T18:11:13.405Z,101146.06
2019-02-19T18:13:46.338Z,101145.81
2019-02-19T18:16:34.328Z,101149.00
2019-02-19T18:19:03.997Z,101150.06
2019-02-19T18:21:32.737Z,101156.10
2019-02-19T18:24:01.325Z,101155.74
2019-02-19T18:26:31.608Z,101156.55
2019-02-19T18:28:59.894Z,101159.89
2019-02-19T18:31:28.156Z,101163.45
2019-02-19T18:33:58.416Z,101166.64
2019-02-19T18:36:26.872Z,101160.25
2019-02-19T18:38:58.109Z,101164.20
2019-02-19T18:41:26.369Z,101152.66
2019-02-19T18:43:54.681Z,101149.96
2019-02-19T18:46:23.026Z,101162.80
2019-02-19T18:48:51.412Z,101164.48
2019-02-19T18:51:21.849Z,101161.39
2019-02-19T18:53:50.192Z,101160.00
2019-02-19T18:56:18.567Z,101166.64
2019-02-19T18:58:46.891Z,101168.24
2019-02-19T19:01:16.759Z,101173.38
2019-02-19T19:03:45.046Z,101174.48
2019-02-19T19:06:13.394Z,101177.68
2019-02-19T19:08:41.813Z,101176.62
2019-02-19T19:11:10.122Z,101175.27
2019-02-19T19:13:38.428Z,101174.73
2019-02-19T19:16:06.770Z,101129.38
2019-02-19T19:18:35.036Z,101171.28
2019-02-19T19:21:07.883Z,101173.09
2019-02-19T19:23:33.559Z,101113.44
2019-02-19T19:26:02.186Z,101181.83
2019-02-19T19:28:30.443Z,101186.47
2019-02-19T19:30:58.827Z,101194.09
2019-02-19T19:33:27.219Z,101190.16
2019-02-19T19:35:55.839Z,101189.56
2019-02-19T19:38:24.131Z,101195.05
2019-02-19T19:40:52.615Z,101201.20
2019-02-19T19:43:22.491Z,101205.45
2019-02-19T19:45:53.791Z,101205.25
2019-02-19T19:48:22.652Z,101210.48
2019-02-19T19:50:50.981Z,101213.83
2019-02-19T19:53:31.345Z,101216.43
2019-02-19T19:55:59.609Z,101177.47
2019-02-19T19:58:27.864Z,101217.34
2019-02-19T20:00:56.177Z,101226.23
2019-02-19T20:03:24.459Z,101223.27
2019-02-19T20:05:52.917Z,101231.72
2019-02-19T20:08:21.183Z,101222.88
2019-02-19T20:10:49.507Z,101227.97
2019-02-19T20:13:17.794Z,101230.97
2019-02-19T20:15:47.793Z,101227.91
2019-02-19T20:18:16.677Z,101233.61
2019-02-19T20:20:45.861Z,101226.06
2019-02-19T20:23:15.863Z,101229.86
2019-02-19T20:25:46.155Z,101234.36
2019-02-19T20:28:14.923Z,101199.77
2019-02-19T20:30:43.186Z,101239.39
2019-02-19T20:33:11.492Z,101237.39
2019-02-19T20:35:41.526Z,101243.44
2019-02-19T20:38:09.957Z,101241.11
2019-02-19T20:40:38.208Z,101234.75
2019-02-19T20:43:06.502Z,101229.63
2019-02-19T20:45:37.781Z,101235.61
2019-02-19T20:48:06.092Z,101238.14
2019-02-19T20:50:34.388Z,101245.15
2019-02-19T20:53:02.680Z,101243.38
2019-02-19T20:55:36.874Z,101247.69
2019-02-19T20:58:02.503Z,101248.08
2019-02-19T21:00:30.783Z,101247.48
2019-02-19T21:02:59.049Z,101249.20
2019-02-19T21:05:27.320Z,101253.63
2019-02-19T21:07:55.602Z,101248.83
2019-02-19T21:10:23.863Z,101251.43
2019-02-19T21:12:52.134Z,101248.34
2019-02-19T21:15:20.561Z,101249.43
2019-02-19T21:17:50.112Z,101247.59
2019-02-19T21:20:18.482Z,101255.61
2019-02-19T21:22:46.730Z,101254.53
2019-02-19T21:25:15.116Z,101262.05
2019-02-19T21:27:43.377Z,101263.97
2019-02-19T21:30:13.741Z,101266.86
2019-02-19T21:32:41.995Z,101269.42
2019-02-19T21:35:10.509Z,101269.75
2019-02-19T21:37:39.036Z,101274.35
2019-02-19T21:40:12.754Z,101265.12
2019-02-19T21:42:41.076Z,101268.37
2019-02-19T21:45:11.043Z,101262.91
2019-02-19T21:47:39.308Z,101264.68
2019-02-19T21:50:09.965Z,101264.42
2019-02-19T21:52:38.218Z,101270.56
2019-02-19T21:55:08.857Z,101271.52
2019-02-19T21:57:37.120Z,101227.58
2019-02-19T22:00:13.451Z,101268.72
2019-02-19T22:02:41.700Z,101267.17
2019-02-19T22:05:10.112Z,101268.41
2019-02-19T22:07:38.358Z,101258.70
2019-02-19T22:10:09.260Z,101262.31
2019-02-19T22:12:37.549Z,101258.02
2019-02-19T22:15:10.974Z,101261.47
2019-02-19T22:17:39.262Z,101257.52
2019-02-19T22:20:18.419Z,101259.36
2019-02-19T22:22:46.676Z,101258.27
2019-02-19T22:25:14.966Z,101266.12
2019-02-19T22:27:43.240Z,101257.88
2019-02-19T22:30:14.588Z,101259.98
2019-02-19T22:32:42.854Z,101260.27
2019-02-19T22:35:14.184Z,101263.27
2019-02-19T22:37:42.676Z,101264.27
2019-02-19T22:40:11.322Z,101260.87
2019-02-19T22:42:39.813Z,101262.31
2019-02-19T22:45:09.898Z,101268.47
2019-02-19T22:47:38.365Z,101257.73
2019-02-19T22:50:08.697Z,101265.83
2019-02-19T22:52:37.186Z,101267.28
2019-02-19T22:55:11.481Z,101263.23
2019-02-19T22:57:40.022Z,101267.48
2019-02-19T23:00:16.122Z,101268.95
2019-02-19T23:02:46.708Z,101271.66
2019-02-19T23:05:15.331Z,101270.15
2019-02-19T23:07:43.797Z,101274.61
2019-02-19T23:10:12.317Z,101282.44
2019-02-19T23:12:40.925Z,101272.51
2019-02-19T23:15:09.700Z,101275.37
2019-02-19T23:17:38.169Z,101276.45
2019-02-19T23:20:07.742Z,101283.46
2019-02-19T23:22:36.213Z,101288.27
2019-02-19T23:25:06.178Z,101295.98
2019-02-19T23:27:34.651Z,101297.11
2019-02-19T23:30:03.276Z,101298.55
2019-02-19T23:32:31.747Z,101296.15
2019-02-19T23:35:11.159Z,101300.36
2019-02-19T23:37:39.624Z,101297.20
2019-02-19T23:40:08.324Z,101303.33
2019-02-19T23:42:36.775Z,101298.39
2019-02-19T23:45:07.880Z,101297.99
2019-02-19T23:47:36.415Z,101302.08
2019-02-19T23:50:07.052Z,101297.05
2019-02-19T23:52:35.550Z,101296.28
2019-02-19T23:55:05.192Z,101296.39
2019-02-19T23:57:33.693Z,101297.38
